Time;durP1;ratioP1;P1;durP2;ratioP2;P2;SDS_P1;SDS_P2;PMS_P1;PMS_P2;Temp;Humidity;BMP_temperature;BMP_pressure;BME280_temperature;BME280_humidity;BME280_pressure;Samples;Min_cycle;Max_cycle;Signal;HPM_P1;HPM_P2
2022/06/27 00:02:51;;;;;;;14.80;4.90;;;;;;;20.96;55.61;99966.85;214569;1274;140255;-63
2022/06/27 00:07:57;;;;;;;5.50;4.90;;;;;;;20.89;55.46;99968.48;214306;1273;140070;-63
2022/06/27 00:13:02;;;;;;;4.70;4.40;;;;;;;20.83;55.73;99968.04;215259;1274;140315;-63
2022/06/27 00:18:07;;;;;;;9.30;4.50;;;;;;;20.78;55.82;99963.03;214352;1274;140063;-64
2022/06/27 00:23:12;;;;;;;5.60;5.10;;;;;;;20.76;55.96;99962.27;214563;1274;140489;-64
2022/06/27 00:28:17;;;;;;;3.60;3.30;;;;;;;20.72;56.06;99957.66;213821;1274;141126;-64
2022/06/27 00:33:21;;;;;;;7.00;4.90;;;;;;;20.68;56.21;99959.25;214833;1274;139329;-65
2022/06/27 00:38:27;;;;;;;6.00;4.70;;;;;;;20.64;56.35;99958.33;214050;1274;139414;-64
2022/06/27 00:43:32;;;;;;;5.40;4.60;;;;;;;20.61;56.43;99961.09;214911;1274;657040;-64
2022/06/27 00:48:37;;;;;;;5.20;4.40;;;;;;;20.58;56.50;99958.16;213565;1274;140188;-64
2022/06/27 00:53:46;;;;;;;10.40;5.30;;;;;;;20.56;56.59;99960.73;216107;1274;140583;-64
2022/06/27 00:58:51;;;;;;;5.50;4.60;;;;;;;20.51;56.76;99958.05;216049;1274;139991;-65
2022/06/27 01:04:00;;;;;;;5.20;4.70;;;;;;;20.47;56.84;99959.25;215685;1274;139558;-63
2022/06/27 01:09:05;;;;;;;7.10;4.80;;;;;;;20.45;56.99;99961.30;215675;1274;140258;-65
2022/06/27 01:14:11;;;;;;;6.10;4.90;;;;;;;20.43;56.98;99963.02;214319;1274;140641;-63
2022/06/27 01:19:17;;;;;;;5.80;4.90;;;;;;;20.40;57.01;99958.87;214935;1274;139788;-64
2022/06/27 01:24:27;;;;;;;5.20;4.70;;;;;;;20.34;57.18;99962.35;214115;1274;139491;-64
2022/06/27 01:29:32;;;;;;;5.50;5.10;;;;;;;20.29;57.31;99960.48;213138;1274;139929;-63
2022/06/27 01:34:36;;;;;;;7.40;5.50;;;;;;;20.23;57.56;99960.88;213787;1274;140013;-65
2022/06/27 01:39:40;;;;;;;6.20;5.60;;;;;;;20.17;57.77;99955.83;214720;1274;139377;-64
2022/06/27 01:44:47;;;;;;;5.90;5.20;;;;;;;20.11;57.90;99955.59;212985;1274;139299;-63
2022/06/27 01:49:52;;;;;;;7.40;6.70;;;;;;;20.05;58.08;99950.15;213727;1273;139398;-65
2022/06/27 01:54:56;;;;;;;7.60;5.70;;;;;;;20.03;58.10;99954.02;213508;1273;139942;-65
2022/06/27 02:00:01;;;;;;;7.50;6.40;;;;;;;20.02;58.34;99951.61;213757;1274;141156;-67
2022/06/27 02:05:05;;;;;;;6.60;5.90;;;;;;;19.99;58.49;99953.59;214452;1274;140017;-65
2022/06/27 02:10:10;;;;;;;7.40;6.70;;;;;;;19.94;58.57;99951.92;213590;1274;159742;-66
2022/06/27 02:15:15;;;;;;;6.10;5.70;;;;;;;19.90;58.89;99959.05;214575;1274;140438;-65
2022/06/27 02:20:19;;;;;;;7.00;5.60;;;;;;;19.85;58.83;99959.95;213681;1274;139322;-65
2022/06/27 02:25:25;;;;;;;5.20;4.80;;;;;;;19.80;59.08;99964.07;213214;1274;232346;-65
2022/06/27 02:30:29;;;;;;;6.50;6.00;;;;;;;19.74;59.22;99967.17;214623;1274;140110;-65
2022/06/27 02:35:35;;;;;;;6.20;5.60;;;;;;;19.69;59.47;99965.82;215751;1274;140468;-65
2022/06/27 02:40:42;;;;;;;7.30;5.30;;;;;;;19.64;59.60;99966.70;216156;1274;140322;-65
2022/06/27 02:45:47;;;;;;;5.70;4.40;;;;;;;19.64;59.91;99963.07;216157;1274;142149;-65
2022/06/27 02:51:03;;;;;;;5.60;5.10;;;;;;;19.66;59.99;99963.20;216158;1274;139854;-65
2022/06/27 02:56:12;;;;;;;6.20;5.60;;;;;;;19.71;60.11;99963.42;216054;1274;139704;-65
2022/06/27 03:01:19;;;;;;;7.40;6.00;;;;;;;19.79;60.16;99963.81;215694;1274;141532;-64
2022/06/27 03:06:23;;;;;;;;;;;;;;;19.89;60.12;99964.92;213248;1274;140311;-65
2022/06/27 03:11:28;;;;;;;5.40;5.00;;;;;;;19.93;60.31;99961.40;215749;1274;126738;-66
2022/06/27 03:16:33;;;;;;;4.80;4.50;;;;;;;20.01;60.44;99967.86;213957;1275;140789;-65
2022/06/27 03:21:37;;;;;;;6.00;5.40;;;;;;;20.07;60.50;99970.75;214820;1274;140124;-65
2022/06/27 03:26:43;;;;;;;10.70;5.30;;;;;;;20.12;60.53;99967.71;213829;1274;141229;-65
2022/06/27 03:31:47;;;;;;;6.70;5.00;;;;;;;20.15;60.55;99972.81;214482;1274;140705;-65
2022/06/27 03:36:51;;;;;;;5.80;5.20;;;;;;;20.19;60.75;99969.39;214956;1274;140074;-65
2022/06/27 03:41:55;;;;;;;6.90;5.50;;;;;;;20.26;60.78;99974.70;214679;1274;139362;-65
2022/06/27 03:46:59;;;;;;;8.20;5.40;;;;;;;20.58;60.79;99978.48;214507;1274;140083;-66
2022/06/27 03:52:03;;;;;;;5.60;5.10;;;;;;;20.98;60.51;99982.42;214259;1274;139449;-65
2022/06/27 03:57:07;;;;;;;5.70;5.20;;;;;;;21.17;60.48;99984.05;213452;1274;140006;-65
2022/06/27 04:02:12;;;;;;;8.10;4.90;;;;;;;21.47;59.85;99987.39;214816;1274;141172;-66
2022/06/27 04:07:17;;;;;;;5.00;4.60;;;;;;;21.55;59.65;99988.29;214011;1274;141337;-65
2022/06/27 04:12:22;;;;;;;6.30;4.70;;;;;;;21.63;59.72;99995.95;213422;1274;141012;-65
2022/06/27 04:17:27;;;;;;;5.40;4.90;;;;;;;21.74;59.60;99998.91;215291;1274;141134;-65
2022/06/27 04:22:31;;;;;;;10.80;5.10;;;;;;;22.10;59.37;99997.71;214759;1274;150792;-65
2022/06/27 04:27:35;;;;;;;5.50;4.60;;;;;;;22.49;58.75;99999.93;215843;1274;141282;-65
2022/06/27 04:32:40;;;;;;;5.10;4.60;;;;;;;22.70;58.52;99997.09;215913;1274;141432;-66
2022/06/27 04:37:45;;;;;;;5.20;4.70;;;;;;;23.51;57.86;100004.31;215035;1274;139940;-65
2022/06/27 04:42:50;;;;;;;6.70;5.10;;;;;;;25.91;55.18;100000.05;216003;1274;140205;-65
2022/06/27 04:47:55;;;;;;;4.50;4.20;;;;;;;27.88;52.71;100003.81;216007;1274;139707;-65
2022/06/27 04:53:01;;;;;;;4.50;4.20;;;;;;;30.49;48.50;100006.89;215929;1274;140223;-66
2022/06/27 04:58:06;;;;;;;5.70;4.10;;;;;;;30.44;47.07;100017.03;216032;1273;140399;-65
2022/06/27 05:03:12;;;;;;;4.70;3.50;;;;;;;29.88;46.29;100023.48;214866;1274;140023;-65
2022/06/27 05:08:17;;;;;;;4.00;3.70;;;;;;;30.32;44.85;100026.98;215081;1274;139910;-64
2022/06/27 05:13:22;;;;;;;4.60;3.40;;;;;;;32.58;41.36;100030.58;214963;1274;139789;-64
2022/06/27 05:18:27;;;;;;;3.20;2.90;;;;;;;35.80;38.77;100037.73;215213;1274;140678;-66
2022/06/27 05:23:32;;;;;;;3.30;2.30;;;;;;;37.90;34.98;100034.16;213278;1276;139700;-65
2022/06/27 05:28:37;;;;;;;4.20;1.80;;;;;;;39.70;32.75;100035.19;214873;1274;140258;-66
2022/06/27 05:33:44;;;;;;;2.10;2.00;;;;;;;41.05;30.55;100043.74;214110;1274;139619;-66
2022/06/27 05:38:49;;;;;;;5.10;1.80;;;;;;;42.76;29.09;100041.00;213910;1274;139447;-66
2022/06/27 05:43:55;;;;;;;2.70;2.10;;;;;;;43.92;27.20;100036.78;213262;1276;139479;-65
2022/06/27 05:49:05;;;;;;;2.30;1.60;;;;;;;45.12;25.67;100044.48;213778;1274;139458;-65
2022/06/27 05:54:18;;;;;;;4.80;1.90;;;;;;;45.56;24.35;100053.01;214456;1274;140152;-66
2022/06/27 05:59:24;;;;;;;2.50;1.80;;;;;;;45.86;23.63;100047.48;214482;1274;140518;-67
2022/06/27 06:04:31;;;;;;;1.80;1.70;;;;;;;46.87;23.07;100056.73;214793;1274;139417;-66
2022/06/27 06:09:41;;;;;;;2.70;2.00;;;;;;;47.34;21.70;100055.98;213986;1274;139407;-66
2022/06/27 06:14:50;;;;;;;3.50;2.30;;;;;;;47.24;20.88;100052.05;214038;1274;139846;-67
2022/06/27 06:19:58;;;;;;;2.00;1.80;;;;;;;46.75;20.12;100052.61;214862;1274;140280;-67
2022/06/27 06:25:03;;;;;;;4.60;2.20;;;;;;;47.01;20.76;100053.89;214727;1275;139659;-66
2022/06/27 06:30:10;;;;;;;1.70;1.60;;;;;;;47.27;20.14;100055.80;214487;1274;140422;-66
2022/06/27 06:35:32;;;;;;;;;;;;;;;;;;;;;
2022/06/27 06:40:40;;;;;;;6.40;3.00;;;;;;;47.37;19.67;100051.73;214590;1274;141326;-67
2022/06/27 06:45:55;;;;;;;4.30;2.20;;;;;;;47.47;18.88;100053.53;215331;1274;139450;-66
2022/06/27 06:51:04;;;;;;;2.30;2.20;;;;;;;46.46;18.81;100053.84;215887;1274;139979;-66
2022/06/27 06:56:10;;;;;;;6.40;2.10;;;;;;;46.17;18.99;100046.27;215936;1274;139827;-67
2022/06/27 07:01:20;;;;;;;2.10;2.00;;;;;;;45.68;18.87;100043.20;214457;1274;139555;-66
2022/06/27 07:06:27;;;;;;;7.70;2.20;;;;;;;44.11;18.95;100035.11;214892;1274;139313;-67
2022/06/27 07:11:32;;;;;;;6.70;1.90;;;;;;;43.93;20.59;100034.19;214386;1274;140674;-67
2022/06/27 07:16:37;;;;;;;2.40;2.20;;;;;;;44.79;20.36;100025.89;214577;1274;139863;-67
2022/06/27 07:21:45;;;;;;;5.70;2.30;;;;;;;44.85;19.56;100026.98;214727;1274;139920;-67
2022/06/27 07:26:50;;;;;;;2.40;1.80;;;;;;;43.49;19.92;100026.57;214046;1274;140104;-66
2022/06/27 07:31:54;;;;;;;2.40;2.20;;;;;;;42.00;21.12;100018.86;213682;1274;208386;-67
2022/06/27 07:36:59;;;;;;;1.30;1.20;;;;;;;40.49;21.94;100010.20;214607;1274;139605;-67
2022/06/27 07:42:03;;;;;;;7.10;2.40;;;;;;;39.80;23.11;100004.14;213460;1275;139642;-66
2022/06/27 07:47:07;;;;;;;4.80;2.30;;;;;;;39.49;23.62;100011.94;214536;1276;140461;-69
2022/06/27 07:52:12;;;;;;;2.40;2.00;;;;;;;39.23;23.94;100006.85;213632;1274;139611;-66
2022/06/27 07:57:17;;;;;;;2.20;2.10;;;;;;;39.07;24.55;100005.80;213260;1274;139639;-65
2022/06/27 08:02:24;;;;;;;2.90;2.70;;;;;;;38.40;24.76;100004.15;214386;1274;140299;-66
2022/06/27 08:07:28;;;;;;;1.90;1.80;;;;;;;37.71;25.12;99994.70;213239;1274;139916;-66
2022/06/27 08:12:32;;;;;;;6.30;1.90;;;;;;;37.20;25.48;99992.89;213916;1274;140237;-66
2022/06/27 08:17:36;;;;;;;2.30;2.20;;;;;;;36.63;26.14;99985.77;213970;1274;139967;-66
2022/06/27 08:22:43;;;;;;;2.70;1.90;;;;;;;36.30;26.11;99988.13;213521;1274;141171;-66
2022/06/27 08:27:48;;;;;;;4.70;2.10;;;;;;;35.76;26.56;99991.90;215456;1274;141326;-66
2022/06/27 08:32:55;;;;;;;11.90;3.10;;;;;;;35.09;26.80;99987.44;214402;1274;140385;-65
2022/06/27 08:38:00;;;;;;;4.80;2.70;;;;;;;34.74;28.25;99986.33;214140;1274;140444;-66
2022/06/27 08:43:03;;;;;;;2.70;2.40;;;;;;;34.77;28.55;99988.63;214537;1274;141274;-65
2022/06/27 08:48:08;;;;;;;3.40;2.50;;;;;;;34.95;29.06;99988.84;215406;1274;139679;-66
2022/06/27 08:53:13;;;;;;;2.90;2.70;;;;;;;34.71;28.94;99987.41;215967;1274;140701;-66
2022/06/27 08:58:19;;;;;;;3.70;2.50;;;;;;;34.37;29.12;99987.84;215681;1274;205801;-65
2022/06/27 09:03:24;;;;;;;5.10;3.00;;;;;;;34.11;29.89;99981.85;215942;1272;151065;-66
2022/06/27 09:08:33;;;;;;;2.40;2.20;;;;;;;34.07;30.55;99976.92;215184;1274;139072;-65
2022/06/27 09:13:39;;;;;;;7.90;3.20;;;;;;;34.06;30.77;99970.05;214796;1274;139483;-64
2022/06/27 09:18:43;;;;;;;8.50;3.00;;;;;;;34.02;30.40;99963.77;215449;1274;141109;-65
2022/06/27 09:23:49;;;;;;;5.10;2.20;;;;;;;34.12;30.84;99958.06;214783;1274;140893;-66
2022/06/27 09:29:03;;;;;;;2.50;2.30;;;;;;;34.23;31.11;99959.45;213217;1275;141346;-65
2022/06/27 09:34:14;;;;;;;2.80;2.10;;;;;;;34.22;30.37;99961.99;214521;1274;211807;-65
2022/06/27 09:39:27;;;;;;;2.10;2.00;;;;;;;34.43;30.87;99965.81;213525;1275;140014;-63
2022/06/27 09:44:34;;;;;;;5.10;2.10;;;;;;;34.20;30.34;99955.17;214433;1274;140693;-65
2022/06/27 09:49:41;;;;;;;6.70;2.60;;;;;;;34.13;30.65;99955.69;213571;1274;140505;-65
2022/06/27 09:54:48;;;;;;;7.60;3.00;;;;;;;33.92;30.63;99955.27;213746;1274;140376;-65
2022/06/27 09:59:53;;;;;;;2.40;2.20;;;;;;;33.93;30.76;99951.89;214548;1274;140558;-65
2022/06/27 10:05:02;;;;;;;3.40;3.10;;;;;;;34.09;30.77;99948.17;213862;1274;141524;-64
2022/06/27 10:10:06;;;;;;;11.20;3.30;;;;;;;34.04;30.67;99951.07;214186;1274;162661;-65
2022/06/27 10:15:10;;;;;;;;;;;;;;;34.19;30.95;99943.16;214453;1274;140589;-65
2022/06/27 10:20:37;;;;;;;3.10;2.90;;;;;;;34.26;30.98;99939.64;215906;1274;125599;-65
2022/06/27 10:25:42;;;;;;;5.30;3.30;;;;;;;34.34;31.48;99932.23;215127;1274;142239;-66
2022/06/27 10:30:55;;;;;;;4.90;4.10;;;;;;;34.25;31.91;99923.02;215282;1271;139744;-66
2022/06/27 10:36:03;;;;;;;7.40;3.40;;;;;;;34.04;31.58;99920.64;215326;1274;139657;-66
2022/06/27 10:41:33;;;;;;;3.50;3.20;;;;;;;33.99;32.30;99917.60;213299;1274;140845;-65
2022/06/27 10:46:41;;;;;;;4.10;3.40;;;;;;;34.00;32.79;99913.34;216042;1274;141126;-68
2022/06/27 10:51:46;;;;;;;3.70;2.70;;;;;;;34.17;32.81;99913.67;215578;1274;139961;-67
2022/06/27 10:56:53;;;;;;;3.50;3.30;;;;;;;34.32;32.73;99914.60;215777;1274;140742;-67
2022/06/27 11:02:04;;;;;;;3.80;3.50;;;;;;;34.35;32.56;99909.95;214636;1274;140146;-66
2022/06/27 11:07:09;;;;;;;4.90;2.90;;;;;;;34.49;32.37;99906.21;215131;1274;138919;-66
2022/06/27 11:12:18;;;;;;;4.60;3.00;;;;;;;34.44;31.80;99898.04;213951;1274;140047;-65
2022/06/27 11:17:40;;;;;;;4.10;2.60;;;;;;;34.23;31.90;99899.23;214757;1274;139477;-65
2022/06/27 11:22:58;;;;;;;3.90;3.60;;;;;;;34.26;32.45;99892.58;214702;1274;140367;-65
2022/06/27 11:33:36;;;;;;;4.20;3.50;;;;;;;33.90;31.97;99879.56;213866;1274;140100;-65
2022/06/27 11:38:47;;;;;;;6.70;3.50;;;;;;;33.88;32.41;99876.72;213765;1274;139549;-65
2022/06/27 11:44:02;;;;;;;4.80;3.40;;;;;;;33.76;32.43;99875.22;213851;1276;139193;-65
2022/06/27 11:49:14;;;;;;;4.20;3.80;;;;;;;33.54;32.40;99874.85;213985;1274;139929;-65
2022/06/27 11:54:21;;;;;;;6.00;3.90;;;;;;;33.54;32.70;99872.16;214190;1274;139886;-65
2022/06/27 11:59:26;;;;;;;6.20;3.50;;;;;;;33.31;32.77;99875.48;213915;1274;139408;-65
2022/06/27 12:04:35;;;;;;;4.20;3.60;;;;;;;33.52;33.02;99863.55;214312;1273;139468;-65
2022/06/27 12:09:52;;;;;;;4.90;3.80;;;;;;;33.27;33.10;99861.40;213493;1275;139573;-65
2022/06/27 12:15:00;;;;;;;5.90;3.60;;;;;;;32.99;33.08;99855.27;213821;1274;139489;-65
2022/06/27 12:20:08;;;;;;;;;;;;;;;33.16;32.70;99853.41;215084;1274;139757;-65
2022/06/27 12:25:13;;;;;;;3.80;2.80;;;;;;;33.25;32.71;99850.09;214870;1274;125913;-65
2022/06/27 12:30:18;;;;;;;3.70;3.50;;;;;;;33.48;32.28;99849.55;215329;1274;140638;-65
2022/06/27 12:35:25;;;;;;;3.80;3.50;;;;;;;33.34;32.48;99845.34;215750;1275;139102;-65
2022/06/27 12:40:30;;;;;;;17.70;4.70;;;;;;;33.38;32.57;99846.00;214860;1274;140424;-65
2022/06/27 12:45:39;;;;;;;4.40;3.30;;;;;;;33.52;32.56;99842.30;215706;1274;452841;-65
2022/06/27 12:50:43;;;;;;;4.10;3.40;;;;;;;33.74;32.71;99841.25;215737;1275;139874;-65
2022/06/27 12:55:47;;;;;;;7.90;3.30;;;;;;;33.98;32.78;99837.23;215637;1275;140262;-65
2022/06/27 13:00:51;;;;;;;3.90;3.60;;;;;;;33.84;31.90;99840.98;214744;1274;140859;-65
2022/06/27 13:05:55;;;;;;;3.80;3.50;;;;;;;33.56;31.90;99836.71;215114;1274;140164;-64
2022/06/27 13:10:59;;;;;;;5.40;3.30;;;;;;;33.65;32.20;99836.04;213962;1274;140237;-65
2022/06/27 13:16:03;;;;;;;;;;;;;;;33.53;31.52;99834.34;214635;1274;140222;-66
2022/06/27 13:21:07;;;;;;;5.40;3.60;;;;;;;33.22;31.81;99829.79;215690;1274;126530;-66
2022/06/27 13:26:11;;;;;;;;;;;;;;;33.40;32.30;99824.63;215451;1274;141213;-68
2022/06/27 13:31:16;;;;;;;3.40;3.20;;;;;;;33.49;32.32;99828.78;214923;1274;126680;-62
2022/06/27 13:36:20;;;;;;;3.60;3.40;;;;;;;33.50;31.78;99823.42;213673;1274;141851;-63
2022/06/27 13:41:24;;;;;;;7.00;3.50;;;;;;;33.38;31.53;99817.35;213821;1274;141421;-64
2022/06/27 13:46:28;;;;;;;5.00;2.80;;;;;;;33.46;31.81;99812.27;213149;1274;140446;-65
2022/06/27 13:51:36;;;;;;;4.10;3.30;;;;;;;33.56;31.82;99817.61;213290;1274;141737;-65
2022/06/27 13:56:44;;;;;;;4.30;3.90;;;;;;;33.50;31.73;99815.69;213928;1274;140340;-66
2022/06/27 14:01:48;;;;;;;4.70;3.50;;;;;;;33.46;31.64;99816.05;213202;1274;142217;-64
2022/06/27 14:12:15;;;;;;;3.70;3.40;;;;;;;33.45;31.64;99810.05;213422;1274;141108;-64
2022/06/27 14:17:19;;;;;;;3.60;3.30;;;;;;;33.48;31.70;99802.80;212985;1274;140574;-64
2022/06/27 14:22:24;;;;;;;4.20;3.90;;;;;;;33.57;31.69;99799.45;214912;1274;140588;-64
2022/06/27 14:27:32;;;;;;;4.10;3.80;;;;;;;33.55;31.79;99798.89;215198;1273;139948;-65
2022/06/27 14:32:37;;;;;;;7.70;4.00;;;;;;;33.46;31.95;99787.70;214265;1273;140268;-65
2022/06/27 14:38:03;;;;;;;4.00;3.70;;;;;;;33.40;31.49;99777.56;215783;1274;140772;-64
2022/06/27 14:43:07;;;;;;;2.90;2.70;;;;;;;33.35;31.48;99780.53;216004;1273;140415;-67
2022/06/27 14:48:13;;;;;;;4.70;3.50;;;;;;;33.35;31.30;99787.41;216097;1273;140173;-65
2022/06/27 14:53:27;;;;;;;4.70;4.00;;;;;;;33.15;31.51;99789.64;215934;1273;140499;-65
2022/06/27 14:58:30;;;;;;;5.10;4.00;;;;;;;33.05;31.64;99779.39;215658;1273;141157;-64
2022/06/27 15:03:35;;;;;;;5.70;3.90;;;;;;;32.93;31.44;99777.75;215812;1275;141130;-65
2022/06/27 15:08:42;;;;;;;4.90;3.80;;;;;;;32.88;31.68;99781.02;215867;1274;139850;-64
2022/06/27 15:13:47;;;;;;;9.50;4.10;;;;;;;32.94;31.67;99772.95;215974;1274;139504;-64
2022/06/27 15:18:54;;;;;;;4.60;3.90;;;;;;;32.89;31.66;99768.64;215077;1274;140379;-64
2022/06/27 15:23:59;;;;;;;3.90;3.60;;;;;;;32.91;31.95;99769.45;215250;1274;139510;-64
2022/06/27 15:29:03;;;;;;;4.10;3.80;;;;;;;32.90;31.96;99776.45;213881;1274;140673;-64
2022/06/27 15:34:07;;;;;;;4.30;3.90;;;;;;;32.66;31.99;99775.39;214830;1274;140199;-63
2022/06/27 15:39:11;;;;;;;4.00;2.90;;;;;;;32.49;32.41;99776.41;213377;1276;141349;-64
2022/06/27 15:44:15;;;;;;;3.80;3.60;;;;;;;32.30;32.46;99777.12;214210;1274;140203;-64
2022/06/27 15:49:19;;;;;;;3.30;3.00;;;;;;;32.22;32.95;99777.65;214305;1274;140417;-65
2022/06/27 15:54:24;;;;;;;3.80;3.50;;;;;;;32.21;32.96;99770.38;214270;1274;140685;-64
2022/06/27 15:59:28;;;;;;;3.60;3.30;;;;;;;32.19;33.30;99764.45;214124;1274;140622;-64
2022/06/27 16:04:34;;;;;;;3.70;3.40;;;;;;;32.10;33.39;99764.20;213217;1274;140985;-64
2022/06/27 16:09:38;;;;;;;3.70;3.40;;;;;;;32.01;33.10;99758.45;213814;1274;140720;-64
2022/06/27 16:14:43;;;;;;;3.30;3.10;;;;;;;31.84;32.86;99752.73;214364;1274;142885;-64
2022/06/27 16:19:49;;;;;;;11.20;3.40;;;;;;;31.64;33.08;99750.91;214004;1274;141366;-64
2022/06/27 16:25:16;;;;;;;2.80;2.70;;;;;;;31.56;33.59;99751.83;213678;1274;140486;-63
2022/06/27 16:35:45;;;;;;;3.20;2.80;;;;;;;31.47;33.24;99753.70;213112;1274;141079;-64
2022/06/27 16:40:49;;;;;;;4.20;3.20;;;;;;;31.41;33.29;99750.79;215174;1274;140227;-65
2022/06/27 16:45:57;;;;;;;4.10;3.80;;;;;;;31.27;33.46;99753.10;215685;1274;139507;-65
2022/06/27 16:51:03;;;;;;;7.90;3.70;;;;;;;31.09;33.65;99755.60;214216;1275;140958;-64
2022/06/27 16:56:08;;;;;;;3.10;2.80;;;;;;;31.02;33.72;99754.93;215621;1274;140067;-64
2022/06/27 17:01:14;;;;;;;3.70;3.40;;;;;;;30.93;33.91;99755.83;215992;1274;140077;-65
2022/06/27 17:06:19;;;;;;;;;;;;;;;30.80;33.63;99757.93;215684;1276;140046;-65
2022/06/27 17:11:23;;;;;;;4.40;3.10;;;;;;;30.64;33.85;99761.59;215446;1274;126702;-65
2022/06/27 17:16:27;;;;;;;4.10;3.10;;;;;;;30.54;33.94;99760.40;214131;1274;141412;-64
2022/06/27 17:21:31;;;;;;;5.10;3.10;;;;;;;30.44;34.05;99761.39;214209;1274;140570;-64
2022/06/27 17:26:36;;;;;;;6.10;2.80;;;;;;;30.33;33.92;99762.05;215123;1274;139727;-64
2022/06/27 17:31:40;;;;;;;3.80;3.20;;;;;;;30.26;34.30;99767.59;214570;1274;220304;-63
2022/06/27 17:36:44;;;;;;;3.40;3.10;;;;;;;30.15;34.31;99772.52;214313;1274;139854;-63
2022/06/27 17:41:49;;;;;;;3.60;3.30;;;;;;;30.01;34.21;99777.80;214018;1274;139128;-63
2022/06/27 17:46:54;;;;;;;3.60;3.10;;;;;;;29.87;34.53;99778.92;214305;1274;139333;-62
2022/06/27 17:51:59;;;;;;;3.60;3.30;;;;;;;29.70;35.13;99780.79;213848;1274;139775;-62
2022/06/27 17:57:04;;;;;;;3.60;3.30;;;;;;;29.58;35.41;99779.36;214127;1274;140313;-62
2022/06/27 18:02:08;;;;;;;3.40;3.20;;;;;;;29.42;35.69;99778.79;214072;1274;141355;-62
2022/06/27 18:07:14;;;;;;;;;;;;;;;29.24;36.15;99785.81;213387;1274;140901;-61
2022/06/27 18:12:18;;;;;;;10.10;3.70;;;;;;;29.05;36.68;99788.15;214266;1274;128342;-62
2022/06/27 18:17:22;;;;;;;4.70;3.30;;;;;;;28.88;37.48;99788.50;215077;1274;140493;-64
2022/06/27 18:22:28;;;;;;;4.50;3.90;;;;;;;28.70;37.68;99792.52;213625;1274;140589;-63
2022/06/27 18:27:40;;;;;;;9.80;4.60;;;;;;;28.52;37.81;99799.20;214444;1274;140845;-63
2022/06/27 18:32:50;;;;;;;9.30;3.50;;;;;;;28.32;38.11;99803.30;213669;1274;140660;-63
2022/06/27 18:37:55;;;;;;;7.00;3.60;;;;;;;28.14;38.42;99810.08;213005;1274;140400;-64
2022/06/27 18:43:02;;;;;;;6.70;3.80;;;;;;;27.96;38.68;99817.08;214509;1274;141204;-63
2022/06/27 18:48:08;;;;;;;11.70;4.10;;;;;;;27.78;38.86;99817.86;215731;1274;140108;-66
2022/06/27 18:53:12;;;;;;;3.80;3.40;;;;;;;27.61;39.03;99822.87;215713;1274;139511;-66
2022/06/27 18:58:16;;;;;;;3.30;2.60;;;;;;;27.46;39.11;99824.30;215976;1274;139492;-67
2022/06/27 19:03:21;;;;;;;5.10;3.30;;;;;;;27.31;39.41;99835.95;215915;1274;139725;-67
2022/06/27 19:08:26;;;;;;;3.40;2.90;;;;;;;27.17;40.01;99842.88;215806;1274;140253;-67
2022/06/27 19:13:30;;;;;;;3.20;2.80;;;;;;;27.01;40.17;99849.38;215961;1274;140469;-66
2022/06/27 19:18:38;;;;;;;5.40;3.90;;;;;;;26.87;40.42;99854.79;214186;1274;140159;-65
2022/06/27 19:23:46;;;;;;;5.10;3.80;;;;;;;26.75;40.63;99856.02;213443;1274;140446;-64
2022/06/27 19:28:51;;;;;;;5.30;3.70;;;;;;;26.64;41.03;99864.29;214769;1274;140289;-64
2022/06/27 19:33:55;;;;;;;3.60;3.10;;;;;;;26.51;41.68;99862.92;214876;1275;139340;-63
2022/06/27 19:39:01;;;;;;;5.40;3.70;;;;;;;26.36;41.95;99859.11;213066;1274;140620;-64
2022/06/27 19:44:05;;;;;;;5.50;3.30;;;;;;;26.21;41.90;99858.56;213005;1274;139736;-64
2022/06/27 19:49:09;;;;;;;3.80;3.50;;;;;;;26.10;42.03;99860.96;213438;1274;141725;-63
2022/06/27 19:54:15;;;;;;;4.70;3.40;;;;;;;25.99;42.41;99861.27;213166;1274;140066;-62
2022/06/27 19:59:18;;;;;;;3.70;3.40;;;;;;;25.91;42.37;99856.73;213511;1274;140949;-63
2022/06/27 20:04:21;;;;;;;5.60;3.50;;;;;;;25.83;42.45;99855.22;214630;1274;141130;-62
2022/06/27 20:09:26;;;;;;;3.80;3.40;;;;;;;25.78;42.53;99847.61;213362;1276;140209;-64
2022/06/27 20:14:30;;;;;;;6.50;3.50;;;;;;;25.73;42.54;99843.20;213221;1274;141409;-63
2022/06/27 20:19:34;;;;;;;7.20;3.00;;;;;;;25.67;42.74;99838.70;213851;1275;139202;-64
2022/06/27 20:24:39;;;;;;;3.00;2.60;;;;;;;25.63;42.92;99839.48;215183;1274;139561;-63
2022/06/27 20:29:43;;;;;;;3.90;3.60;;;;;;;25.57;43.06;99849.98;213970;1274;139289;-63
2022/06/27 20:34:52;;;;;;;3.10;2.90;;;;;;;25.50;43.29;99845.73;213607;1274;139178;-64
2022/06/27 20:39:57;;;;;;;3.50;3.20;;;;;;;25.41;43.50;99842.98;215236;1274;139735;-63
2022/06/27 20:45:01;;;;;;;2.90;2.60;;;;;;;25.35;43.55;99838.31;214750;1274;139484;-63
2022/06/27 20:50:06;;;;;;;3.20;2.90;;;;;;;25.31;43.50;99832.15;213325;1274;139797;-63
2022/06/27 20:55:11;;;;;;;6.50;3.50;;;;;;;25.28;43.79;99829.15;215353;1274;139641;-63
2022/06/27 21:00:16;;;;;;;5.50;3.50;;;;;;;25.24;43.95;99826.30;214462;1274;141182;-63
2022/06/27 21:05:20;;;;;;;4.60;4.20;;;;;;;25.19;44.00;99822.92;214977;1276;139777;-63
2022/06/27 21:15:48;;;;;;;4.10;3.20;;;;;;;25.05;44.31;99826.98;215657;1274;140124;-64
2022/06/27 21:20:51;;;;;;;6.80;3.50;;;;;;;24.99;44.47;99823.95;214735;1274;139622;-63
2022/06/27 21:25:56;;;;;;;3.30;3.00;;;;;;;24.95;44.66;99824.52;214024;1275;139150;-63
2022/06/27 21:31:05;;;;;;;4.10;3.80;;;;;;;24.87;44.84;99826.59;213334;1274;163359;-63
2022/06/27 21:36:12;;;;;;;3.90;3.60;;;;;;;24.79;44.83;99825.11;214136;1274;140654;-63
2022/06/27 21:41:17;;;;;;;12.00;4.10;;;;;;;24.72;44.99;99825.83;214666;1274;141444;-62
2022/06/27 21:46:23;;;;;;;3.60;3.20;;;;;;;24.65;45.43;99823.89;213602;1275;139807;-62
2022/06/27 21:51:29;;;;;;;7.70;4.00;;;;;;;24.54;45.41;99821.73;214748;1274;139644;-62
2022/06/27 21:56:34;;;;;;;7.00;3.70;;;;;;;24.45;45.47;99815.52;214077;1274;139843;-62
2022/06/27 22:01:39;;;;;;;7.70;3.70;;;;;;;24.35;45.97;99811.45;213932;1274;141072;-63
2022/06/27 22:06:43;;;;;;;5.10;3.80;;;;;;;24.25;45.92;99809.48;213883;1275;139039;-63
2022/06/27 22:11:46;;;;;;;4.10;3.80;;;;;;;24.15;46.39;99812.09;213721;1274;140974;-63
2022/06/27 22:16:50;;;;;;;4.40;4.00;;;;;;;24.06;46.37;99816.52;213546;1274;139548;-62
2022/06/27 22:21:54;;;;;;;4.80;4.30;;;;;;;24.00;46.71;99820.21;214243;1274;139816;-64
2022/06/27 22:27:03;;;;;;;3.30;3.00;;;;;;;23.89;46.78;99819.89;214961;1274;139683;-63
2022/06/27 22:32:08;;;;;;;5.90;4.20;;;;;;;23.79;46.97;99814.79;213992;1274;140281;-63
2022/06/27 22:37:12;;;;;;;3.50;3.30;;;;;;;23.70;47.14;99810.11;213249;1274;140017;-64
2022/06/27 22:42:16;;;;;;;4.10;3.80;;;;;;;23.65;47.36;99812.11;214661;1274;139636;-64
2022/06/27 22:47:21;;;;;;;4.20;3.90;;;;;;;23.58;47.78;99817.06;213931;1274;139854;-63
2022/06/27 22:52:26;;;;;;;5.10;3.90;;;;;;;23.46;48.10;99816.75;213194;1274;139889;-62
2022/06/27 22:57:31;;;;;;;11.00;4.90;;;;;;;23.37;48.19;99815.65;215443;1274;140209;-63
2022/06/27 23:02:36;;;;;;;5.40;3.80;;;;;;;23.32;48.50;99812.42;216024;1274;139598;-63
2022/06/27 23:07:41;;;;;;;6.80;4.20;;;;;;;23.26;48.60;99821.72;215907;1274;140160;-62
2022/06/27 23:12:49;;;;;;;9.60;3.70;;;;;;;23.21;48.83;99833.21;215929;1276;142193;-63
2022/06/27 23:17:54;;;;;;;4.00;3.70;;;;;;;23.15;49.08;99839.56;214949;1276;140666;-64
2022/06/27 23:23:01;;;;;;;5.20;3.90;;;;;;;23.08;49.10;99834.16;216204;1274;139290;-64
2022/06/27 23:28:06;;;;;;;4.50;3.90;;;;;;;23.03;49.39;99830.71;215398;1273;139815;-64
2022/06/27 23:33:11;;;;;;;4.60;4.20;;;;;;;22.99;49.61;99837.58;214545;1274;139249;-62
2022/06/27 23:38:16;;;;;;;6.00;4.80;;;;;;;22.90;49.83;99849.26;214147;1274;140567;-64
2022/06/27 23:43:23;;;;;;;5.30;4.90;;;;;;;22.83;49.98;99850.23;214682;1274;139701;-64
2022/06/27 23:48:27;;;;;;;4.80;4.00;;;;;;;22.76;50.22;99844.77;213372;1274;140273;-64
2022/06/27 23:53:31;;;;;;;5.40;4.40;;;;;;;22.69;50.44;99847.71;214591;1275;139911;-64